Погода Уберабана неделю

Минас-Жерайс, Бразилия

19 - 25 июля
  • 19июля
    Сегодня
    +17°
    +30°
    Ясно и безоблачно
    ВремяПогодаТемператураВлажностьДавлениеВетер, м/сВероятность осадков
    00:00Ясно и безоблачно+20°C52 %703 мм2.8 м/с5 %
    03:00Ясно и безоблачно+19°C54 %702 мм2.9 м/с5 %
    06:00Ясно и безоблачно+18°C57 %702 мм2.9 м/с5 %
    09:00Ясно и безоблачно+22°C43 %705 мм3.0 м/с5 %
    12:00Ясно и безоблачно+27°C28 %705 мм2.4 м/с5 %
    15:00Ясно и безоблачно+29°C25 %703 мм1.0 м/с5 %
    18:00Ясно и безоблачно+27°C37 %703 мм3.1 м/с5 %
    21:00Ясно и безоблачно+23°C49 %704 мм2.1 м/с5 %
  • 20июля
    Суббота
    +17°
    +30°
    Ясно и безоблачно
    ВремяПогодаТемператураВлажностьДавлениеВетер, м/сВероятность осадков
    00:00Ясно и безоблачно+21°C54 %704 мм2.6 м/с5 %
    03:00Ясно и безоблачно+19°C49 %702 мм2.7 м/с5 %
    06:00Ясно и безоблачно+18°C57 %702 мм2.7 м/с5 %
    09:00Ясно и безоблачно+22°C44 %704 мм3.0 м/с5 %
    12:00Ясно и безоблачно+27°C26 %704 мм1.8 м/с5 %
    15:00Ясно и безоблачно+29°C24 %702 мм1.5 м/с5 %
    18:00Ясно и безоблачно+26°C37 %702 мм2.5 м/с5 %
    21:00Ясно и безоблачно+23°C48 %702 мм2.2 м/с5 %
  • 21июля
    Воскресенье
    +18°
    +29°
    Ясно и безоблачно
    ВремяПогодаТемператураВлажностьДавлениеВетер, м/сВероятность осадков
    00:00Ясно и безоблачно+21°C46 %702 мм4.5 м/с5 %
    03:00Ясно и безоблачно+19°C51 %701 мм3.5 м/с5 %
    06:00Ясно и безоблачно+18°C57 %701 мм4.0 м/с5 %
    09:00Ясно и безоблачно+21°C48 %703 мм4.4 м/с5 %
    12:00Ясно и безоблачно+27°C32 %703 мм3.3 м/с5 %
    15:00Ясно и безоблачно+28°C29 %702 мм1.7 м/с5 %
    18:00Ясно и безоблачно+26°C42 %702 мм2.0 м/с5 %
    21:00Ясно и безоблачно+23°C46 %702 мм2.3 м/с5 %
  • 22июля
    Понедельник
    +18°
    +29°
    Ясно и безоблачно
    ВремяПогодаТемператураВлажностьДавлениеВетер, м/сВероятность осадков
    00:00Ясно и безоблачно+21°C48 %703 мм4.2 м/с5 %
    03:00Ясно и безоблачно+19°C47 %702 мм3.9 м/с5 %
    06:00Ясно и безоблачно+19°C50 %702 мм3.8 м/с5 %
    09:00Ясно и безоблачно+22°C45 %704 мм3.5 м/с5 %
    12:00Ясно и безоблачно+27°C28 %704 мм1.8 м/с5 %
    15:00Ясно и безоблачно+29°C26 %703 мм1.4 м/с5 %
    18:00Ясно и безоблачно+26°C34 %703 мм2.5 м/с5 %
    21:00Ясно и безоблачно+22°C46 %703 мм2.2 м/с5 %
Мы используем cookies
Соглашаюсь